createdAt,value
2023-02-19T00:00:00.468Z,70.65
2023-02-19T00:02:29.123Z,71.77
2023-02-19T00:04:57.420Z,72.04
2023-02-19T00:07:25.798Z,72.26
2023-02-19T00:09:54.390Z,72.69
2023-02-19T00:12:22.747Z,73.07
2023-02-19T00:14:50.947Z,73.32
2023-02-19T00:17:19.220Z,73.73
2023-02-19T00:19:47.415Z,73.68
2023-02-19T00:22:15.686Z,73.79
2023-02-19T00:24:44.183Z,74.21
2023-02-19T00:27:12.660Z,73.98
2023-02-19T00:29:41.176Z,74.24
2023-02-19T00:32:09.557Z,74.44
2023-02-19T00:34:37.914Z,74.89
2023-02-19T00:37:06.097Z,75.03
2023-02-19T00:39:34.581Z,74.95
2023-02-19T00:42:03.073Z,75.16
2023-02-19T00:44:31.866Z,75.45
2023-02-19T00:47:00.248Z,75.85
2023-02-19T00:49:28.819Z,75.95
2023-02-19T00:51:57.224Z,75.87
2023-02-19T00:54:25.710Z,75.82
2023-02-19T00:56:54.096Z,76.14
2023-02-19T00:59:22.479Z,76.28
2023-02-19T01:01:51.047Z,76.07
2023-02-19T01:04:19.844Z,76.33
2023-02-19T01:06:49.212Z,76.27
2023-02-19T01:09:17.652Z,76.18
2023-02-19T01:11:46.242Z,76.25
2023-02-19T01:14:14.933Z,76.18
2023-02-19T01:16:43.526Z,76.03
2023-02-19T01:19:12.386Z,76.27
2023-02-19T01:21:41.795Z,76.38
2023-02-19T01:24:11.444Z,76.22
2023-02-19T01:26:40.911Z,76.39
2023-02-19T01:29:10.045Z,76.83
2023-02-19T01:31:41.116Z,76.71
2023-02-19T01:34:12.178Z,76.90
2023-02-19T01:36:41.233Z,76.80
2023-02-19T01:39:11.244Z,77.07
2023-02-19T01:41:41.897Z,77.18
2023-02-19T01:44:18.672Z,76.99
2023-02-19T01:46:48.801Z,76.80
2023-02-19T01:49:26.394Z,77.21
2023-02-19T01:52:15.130Z,76.75
2023-02-19T01:54:45.764Z,77.10
2023-02-19T01:57:19.791Z,77.23
2023-02-19T01:59:55.018Z,77.13
2023-02-19T02:02:28.680Z,77.17
2023-02-19T02:05:00.325Z,76.90
2023-02-19T02:07:47.682Z,76.74
2023-02-19T02:10:22.292Z,76.80
2023-02-19T02:12:52.784Z,76.77
2023-02-19T02:15:22.598Z,76.92
2023-02-19T02:18:05.956Z,77.02
2023-02-19T02:21:19.319Z,76.87
2023-02-19T02:24:09.648Z,76.59
2023-02-19T02:26:56.510Z,76.42
2023-02-19T02:30:03.329Z,76.45
2023-02-19T02:33:05.263Z,76.26
2023-02-19T02:35:40.055Z,76.25
2023-02-19T02:38:11.877Z,76.38
2023-02-19T02:40:43.730Z,76.77
2023-02-19T02:43:13.286Z,77.09
2023-02-19T02:45:42.270Z,77.41
2023-02-19T02:48:31.552Z,78.26
2023-02-19T02:51:21.525Z,78.30
2023-02-19T02:54:21.732Z,78.83
2023-02-19T02:56:51.470Z,78.86
2023-02-19T02:59:25.243Z,79.71
2023-02-19T03:02:14.458Z,79.49
2023-02-19T03:05:32.229Z,79.49
2023-02-19T03:08:06.545Z,79.58
2023-02-19T03:11:20.776Z,80.27
2023-02-19T03:14:12.695Z,82.12
2023-02-19T03:17:04.429Z,82.03
2023-02-19T03:19:38.937Z,82.43
2023-02-19T03:22:20.333Z,82.74
2023-02-19T03:25:16.133Z,82.93
2023-02-19T03:27:46.983Z,83.00
2023-02-19T03:30:21.818Z,83.53
2023-02-19T03:32:57.654Z,83.55
2023-02-19T03:35:30.878Z,83.60
2023-02-19T03:38:26.716Z,83.21
2023-02-19T03:41:11.871Z,82.53
2023-02-19T03:43:51.975Z,82.60
2023-02-19T03:46:35.558Z,82.44
2023-02-19T03:49:24.865Z,82.51
2023-02-19T03:52:45.763Z,82.54
2023-02-19T03:55:23.062Z,82.49
2023-02-19T03:57:58.292Z,82.55
2023-02-19T04:00:44.382Z,81.94
2023-02-19T04:03:47.041Z,81.43
2023-02-19T04:06:22.993Z,81.14
2023-02-19T04:08:56.501Z,81.34
2023-02-19T04:11:27.039Z,80.76
2023-02-19T04:14:15.379Z,81.25
2023-02-19T04:16:45.873Z,81.06
2023-02-19T04:19:18.691Z,80.97
2023-02-19T04:21:50.755Z,81.18
2023-02-19T04:24:35.005Z,81.66
2023-02-19T04:27:05.034Z,81.72
2023-02-19T04:29:33.507Z,81.81
2023-02-19T04:32:01.900Z,81.66
2023-02-19T04:34:32.429Z,81.85
2023-02-19T04:37:00.911Z,81.65
2023-02-19T04:39:29.296Z,81.47
2023-02-19T04:41:58.392Z,81.44
2023-02-19T04:44:27.186Z,81.35
2023-02-19T04:46:56.200Z,81.07
2023-02-19T04:49:25.496Z,80.99
2023-02-19T04:51:53.872Z,80.95
2023-02-19T04:54:22.059Z,80.63
2023-02-19T04:56:50.968Z,80.45
2023-02-19T04:59:19.337Z,80.70
2023-02-19T05:01:47.680Z,80.50
2023-02-19T05:04:16.265Z,80.47
2023-02-19T05:06:44.804Z,80.17
2023-02-19T05:09:13.083Z,80.00
2023-02-19T05:11:41.584Z,79.32
2023-02-19T05:14:09.746Z,79.12
2023-02-19T05:16:38.028Z,78.54
2023-02-19T05:19:06.205Z,78.43
2023-02-19T05:21:34.598Z,78.45
2023-02-19T05:24:02.875Z,78.89
2023-02-19T05:26:31.481Z,79.49
2023-02-19T05:29:00.157Z,80.34
2023-02-19T05:31:29.207Z,79.75
2023-02-19T05:33:57.942Z,79.82
2023-02-19T05:36:26.841Z,79.87
2023-02-19T05:38:59.099Z,79.82
2023-02-19T05:41:29.339Z,80.00
2023-02-19T05:43:58.765Z,80.06
2023-02-19T05:46:30.165Z,80.27
2023-02-19T05:48:59.830Z,80.54
2023-02-19T05:51:28.637Z,80.36
2023-02-19T05:53:57.928Z,80.73
2023-02-19T05:56:26.298Z,80.47
2023-02-19T05:58:55.195Z,80.80
2023-02-19T06:01:26.126Z,80.55
2023-02-19T06:03:57.360Z,80.72
2023-02-19T06:06:27.054Z,80.81
2023-02-19T06:08:55.593Z,80.82
2023-02-19T06:11:24.900Z,81.21
2023-02-19T06:13:53.171Z,81.29
2023-02-19T06:16:22.342Z,81.09
2023-02-19T06:18:50.865Z,81.23
2023-02-19T06:21:20.122Z,81.28
2023-02-19T06:23:48.490Z,81.39
2023-02-19T06:26:23.084Z,81.16
2023-02-19T06:28:53.609Z,81.21
2023-02-19T06:31:24.130Z,80.94
2023-02-19T06:33:52.764Z,80.72
2023-02-19T06:36:22.189Z,80.15
2023-02-19T06:38:51.281Z,79.53
2023-02-19T06:41:19.639Z,79.16
2023-02-19T06:43:48.426Z,78.63
2023-02-19T06:46:17.244Z,78.53
2023-02-19T06:48:46.342Z,78.57
2023-02-19T06:51:24.024Z,78.45
2023-02-19T06:53:52.406Z,78.21
2023-02-19T06:56:29.712Z,77.74
2023-02-19T06:59:00.630Z,76.78
2023-02-19T07:01:32.801Z,76.47
2023-02-19T07:04:01.938Z,76.48
2023-02-19T07:06:30.791Z,76.80
2023-02-19T07:08:59.606Z,76.87
2023-02-19T07:11:31.675Z,76.84
2023-02-19T07:14:03.007Z,76.87
2023-02-19T07:16:32.060Z,77.03
2023-02-19T07:19:06.471Z,76.88
2023-02-19T07:21:38.002Z,76.97
2023-02-19T07:24:07.397Z,76.87
2023-02-19T07:26:35.900Z,77.00
2023-02-19T07:29:04.980Z,76.29
2023-02-19T07:31:33.523Z,75.51
2023-02-19T07:34:01.753Z,74.12
2023-02-19T07:36:30.335Z,73.56
2023-02-19T07:39:00.097Z,73.02
2023-02-19T07:41:28.548Z,72.86
2023-02-19T07:43:59.385Z,72.87
2023-02-19T07:46:28.070Z,72.67
2023-02-19T07:48:56.665Z,71.66
2023-02-19T07:51:26.073Z,71.22
2023-02-19T07:53:54.456Z,70.45
2023-02-19T07:56:22.844Z,71.15
2023-02-19T07:58:51.123Z,71.17
2023-02-19T08:01:44.338Z,70.89
2023-02-19T08:04:26.779Z,70.24
2023-02-19T08:06:55.376Z,69.04
2023-02-19T08:09:23.546Z,67.91
2023-02-19T08:12:10.874Z,68.04
2023-02-19T08:14:39.260Z,69.17
2023-02-19T08:17:07.864Z,68.54
2023-02-19T08:19:36.422Z,67.81
2023-02-19T08:22:04.912Z,67.56
2023-02-19T08:24:34.212Z,67.28
2023-02-19T08:27:02.502Z,66.83
2023-02-19T08:29:31.086Z,66.15
2023-02-19T08:31:59.596Z,66.17
2023-02-19T08:34:28.163Z,65.79
2023-02-19T08:36:56.655Z,66.17
2023-02-19T08:39:24.836Z,65.73
2023-02-19T08:41:53.232Z,64.62
2023-02-19T08:44:21.800Z,63.82
2023-02-19T08:46:51.212Z,63.71
2023-02-19T08:49:20.015Z,62.28
2023-02-19T08:51:48.803Z,62.22
2023-02-19T08:54:17.285Z,62.64
2023-02-19T08:56:45.679Z,62.29
2023-02-19T08:59:13.951Z,60.76
2023-02-19T09:01:42.170Z,61.24
2023-02-19T09:04:13.240Z,61.25
2023-02-19T09:06:41.553Z,60.68
2023-02-19T09:09:09.841Z,60.70
2023-02-19T09:11:41.228Z,60.29
2023-02-19T09:14:09.877Z,59.42
2023-02-19T09:16:38.264Z,57.07
2023-02-19T09:19:06.648Z,57.14
2023-02-19T09:21:35.031Z,57.42
2023-02-19T09:24:03.938Z,56.76
2023-02-19T09:26:32.314Z,56.77
2023-02-19T09:29:00.704Z,56.33
2023-02-19T09:31:29.208Z,56.12
2023-02-19T09:33:57.572Z,54.92
2023-02-19T09:36:26.167Z,54.49
2023-02-19T09:38:54.649Z,55.01
2023-02-19T09:41:34.289Z,51.26
2023-02-19T09:44:06.888Z,51.10
2023-02-19T09:46:42.558Z,51.47
2023-02-19T09:49:25.108Z,51.29
2023-02-19T09:52:08.165Z,51.91
2023-02-19T09:54:38.689Z,51.73
2023-02-19T09:57:15.383Z,51.88
2023-02-19T09:59:52.026Z,51.40
2023-02-19T10:02:24.321Z,50.49
2023-02-19T10:04:53.962Z,49.87
2023-02-19T10:07:33.445Z,50.08
2023-02-19T10:10:14.336Z,50.41
2023-02-19T10:12:50.693Z,50.97
2023-02-19T10:15:31.452Z,50.74
2023-02-19T10:18:00.177Z,50.05
2023-02-19T10:20:28.424Z,50.34
2023-02-19T10:23:08.273Z,50.39
2023-02-19T10:25:40.437Z,50.79
2023-02-19T10:28:17.215Z,51.39
2023-02-19T10:30:52.233Z,51.28
2023-02-19T10:33:21.831Z,49.82
2023-02-19T10:35:57.727Z,50.64
2023-02-19T10:38:48.307Z,50.09
2023-02-19T10:41:20.989Z,49.28
2023-02-19T10:44:15.270Z,48.39
2023-02-19T10:46:51.092Z,49.20
2023-02-19T10:49:35.923Z,49.42
2023-02-19T10:52:18.106Z,47.18
2023-02-19T10:54:52.291Z,47.21
2023-02-19T10:57:30.245Z,47.50
2023-02-19T11:00:15.365Z,45.96
2023-02-19T11:02:45.361Z,46.51
2023-02-19T11:05:16.861Z,46.47
2023-02-19T11:07:47.480Z,46.64
2023-02-19T11:10:28.260Z,47.15
2023-02-19T11:13:02.463Z,48.08
2023-02-19T11:15:34.223Z,48.02
2023-02-19T11:18:22.365Z,48.22
2023-02-19T11:21:02.319Z,48.39
2023-02-19T11:23:36.083Z,48.81
2023-02-19T11:26:16.282Z,49.02
2023-02-19T11:28:44.850Z,49.23
2023-02-19T11:31:23.087Z,49.32
2023-02-19T11:34:26.301Z,49.45
2023-02-19T11:37:13.763Z,50.12
2023-02-19T11:39:47.605Z,50.82
2023-02-19T11:42:39.602Z,51.48
2023-02-19T11:45:20.780Z,51.82
2023-02-19T11:48:13.932Z,51.96
2023-02-19T11:51:20.166Z,52.11
2023-02-19T11:54:01.245Z,52.22
2023-02-19T11:56:39.359Z,52.45
2023-02-19T11:59:38.745Z,52.98
2023-02-19T12:02:25.644Z,53.22
2023-02-19T12:04:56.936Z,53.46
2023-02-19T12:07:46.982Z,53.88
2023-02-19T12:10:32.864Z,54.28
2023-02-19T12:13:27.647Z,54.37
2023-02-19T12:16:18.248Z,54.85
2023-02-19T12:19:14.864Z,55.48
2023-02-19T12:21:56.758Z,55.76
2023-02-19T12:24:43.254Z,55.77
2023-02-19T12:27:33.745Z,55.82
2023-02-19T12:30:35.809Z,56.50
2023-02-19T12:33:42.768Z,56.67
2023-02-19T12:36:37.659Z,56.63
2023-02-19T12:39:15.446Z,56.97
2023-02-19T12:41:53.582Z,57.02
2023-02-19T12:44:45.291Z,57.19
2023-02-19T12:47:23.688Z,57.56
2023-02-19T12:50:08.743Z,57.86
2023-02-19T12:52:41.982Z,58.00
2023-02-19T12:55:26.073Z,58.21
2023-02-19T12:57:55.782Z,58.33
2023-02-19T13:00:44.247Z,58.49
2023-02-19T13:03:31.046Z,58.66
2023-02-19T13:06:03.628Z,58.94
2023-02-19T13:08:42.124Z,59.21
2023-02-19T13:11:25.203Z,59.40
2023-02-19T13:14:19.792Z,59.72
2023-02-19T13:16:50.112Z,59.94
2023-02-19T13:19:18.459Z,60.47
2023-02-19T13:22:17.030Z,60.59
2023-02-19T13:24:47.161Z,61.22
2023-02-19T13:27:33.038Z,61.15
2023-02-19T13:30:32.964Z,61.33
2023-02-19T13:33:04.292Z,62.02
2023-02-19T13:36:11.050Z,62.18
2023-02-19T13:38:43.499Z,62.26
2023-02-19T13:41:50.558Z,62.85
2023-02-19T13:44:22.293Z,63.26
2023-02-19T13:46:51.663Z,63.51
2023-02-19T13:49:29.262Z,63.75
2023-02-19T13:52:22.610Z,64.11
2023-02-19T13:54:51.607Z,64.43
2023-02-19T13:57:26.646Z,64.75
2023-02-19T13:59:57.291Z,64.71
2023-02-19T14:02:31.563Z,64.92
2023-02-19T14:05:01.754Z,64.92
2023-02-19T14:07:49.558Z,64.87
2023-02-19T14:10:49.152Z,64.92
2023-02-19T14:13:52.528Z,64.68
2023-02-19T14:16:56.011Z,64.96
2023-02-19T14:19:56.636Z,64.94
2023-02-19T14:22:55.563Z,64.90
2023-02-19T14:25:49.541Z,64.85
2023-02-19T14:28:24.202Z,64.82
2023-02-19T14:30:58.679Z,64.77
2023-02-19T14:33:34.240Z,64.94
2023-02-19T14:36:31.316Z,65.10
2023-02-19T14:39:06.979Z,65.03
2023-02-19T14:41:40.073Z,64.97
2023-02-19T14:44:18.171Z,64.82
2023-02-19T14:46:50.645Z,65.12
2023-02-19T14:49:45.956Z,65.19
2023-02-19T14:52:44.626Z,65.26
2023-02-19T14:55:37.458Z,65.05
2023-02-19T14:58:11.070Z,64.83
2023-02-19T15:00:42.973Z,64.67
2023-02-19T15:03:34.254Z,64.68
2023-02-19T15:06:14.287Z,64.81
2023-02-19T15:08:45.839Z,64.76
2023-02-19T15:11:21.293Z,65.05
2023-02-19T15:13:58.485Z,64.97
2023-02-19T15:16:29.134Z,65.10
2023-02-19T15:19:00.149Z,64.96
2023-02-19T15:21:32.013Z,65.08
2023-02-19T15:24:03.312Z,65.40
2023-02-19T15:26:55.085Z,65.76
2023-02-19T15:29:26.131Z,65.87
2023-02-19T15:32:03.359Z,66.22
2023-02-19T15:35:00.707Z,66.32
2023-02-19T15:37:33.868Z,66.51
2023-02-19T15:40:07.861Z,66.74
2023-02-19T15:42:38.407Z,66.98
2023-02-19T15:45:25.922Z,67.00
2023-02-19T15:48:18.407Z,67.25
2023-02-19T15:50:57.793Z,67.59
2023-02-19T15:53:31.402Z,67.69
2023-02-19T15:56:09.821Z,67.66
2023-02-19T15:58:46.285Z,67.68
2023-02-19T16:01:27.163Z,67.64
2023-02-19T16:03:56.720Z,67.69
2023-02-19T16:06:27.005Z,67.89
2023-02-19T16:09:02.252Z,67.81
2023-02-19T16:11:39.821Z,68.14
2023-02-19T16:14:28.088Z,68.61
2023-02-19T16:17:05.037Z,68.71
2023-02-19T16:20:02.207Z,68.58
2023-02-19T16:22:35.142Z,68.62
2023-02-19T16:25:06.954Z,68.64
2023-02-19T16:27:38.662Z,68.81
2023-02-19T16:30:18.169Z,68.86
2023-02-19T16:32:47.130Z,68.94
2023-02-19T16:35:40.104Z,68.98
2023-02-19T16:38:17.051Z,69.32
2023-02-19T16:40:48.196Z,69.34
2023-02-19T16:43:28.047Z,69.56
2023-02-19T16:45:57.788Z,69.69
2023-02-19T16:48:26.352Z,69.58
2023-02-19T16:50:55.247Z,69.78
2023-02-19T16:53:29.054Z,70.01
2023-02-19T16:55:57.534Z,70.19
2023-02-19T16:58:26.980Z,70.02
2023-02-19T17:00:56.334Z,70.35
2023-02-19T17:03:26.025Z,70.43
2023-02-19T17:05:54.653Z,70.47
2023-02-19T17:08:29.680Z,70.72
2023-02-19T17:10:59.362Z,70.61
2023-02-19T17:13:29.505Z,70.84
2023-02-19T17:15:58.414Z,70.83
2023-02-19T17:18:27.047Z,71.08
2023-02-19T17:21:00.619Z,71.30
2023-02-19T17:23:29.316Z,71.97
2023-02-19T17:25:57.899Z,72.53
2023-02-19T17:28:26.385Z,72.36
2023-02-19T17:30:54.875Z,72.31
2023-02-19T17:33:23.463Z,72.70
2023-02-19T17:35:51.744Z,72.66
2023-02-19T17:38:20.129Z,72.81
2023-02-19T17:40:48.406Z,73.49
2023-02-19T17:43:17.504Z,73.65
2023-02-19T17:45:45.944Z,73.43
2023-02-19T17:48:15.605Z,73.54
2023-02-19T17:50:44.722Z,73.49
2023-02-19T17:53:20.739Z,73.18
2023-02-19T17:55:49.667Z,73.21
2023-02-19T17:58:18.065Z,73.00
2023-02-19T18:00:46.437Z,72.83
2023-02-19T18:03:14.877Z,72.81
2023-02-19T18:05:43.306Z,72.76
2023-02-19T18:08:11.900Z,72.61
2023-02-19T18:10:40.481Z,72.66
2023-02-19T18:13:09.548Z,73.68
2023-02-19T18:15:37.762Z,74.57
2023-02-19T18:18:06.248Z,75.85
2023-02-19T18:20:35.257Z,77.77
2023-02-19T18:23:03.740Z,77.96
2023-02-19T18:25:32.117Z,77.85
2023-02-19T18:28:00.307Z,78.06
2023-02-19T18:30:29.974Z,78.55
2023-02-19T18:32:58.611Z,78.13
2023-02-19T18:35:26.888Z,78.04
2023-02-19T18:37:56.056Z,77.82
2023-02-19T18:40:28.572Z,78.40
2023-02-19T18:42:57.154Z,78.35
2023-02-19T18:45:26.022Z,77.92
2023-02-19T18:47:54.638Z,77.79
2023-02-19T18:50:23.441Z,78.04
2023-02-19T18:52:51.932Z,77.55
2023-02-19T18:55:20.303Z,77.69
2023-02-19T18:57:51.657Z,77.81
2023-02-19T19:00:26.547Z,77.97
2023-02-19T19:02:57.125Z,77.69
2023-02-19T19:05:26.647Z,77.71
2023-02-19T19:07:56.671Z,77.48
2023-02-19T19:10:25.692Z,77.58
2023-02-19T19:12:54.665Z,77.74
2023-02-19T19:15:23.773Z,78.91
2023-02-19T19:17:52.873Z,79.72
2023-02-19T19:20:23.728Z,80.17
2023-02-19T19:22:53.368Z,81.30
2023-02-19T19:25:23.225Z,81.95
2023-02-19T19:27:57.556Z,82.22
2023-02-19T19:30:26.042Z,81.75
2023-02-19T19:32:55.345Z,81.41
2023-02-19T19:35:23.727Z,81.61
2023-02-19T19:37:51.910Z,81.66
2023-02-19T19:40:20.904Z,82.85
2023-02-19T19:42:52.292Z,82.77
2023-02-19T19:45:21.079Z,83.07
2023-02-19T19:47:49.984Z,83.50
2023-02-19T19:50:19.321Z,84.01
2023-02-19T19:52:47.639Z,84.08
2023-02-19T19:55:16.582Z,84.28
2023-02-19T19:57:45.116Z,84.04
2023-02-19T20:00:17.899Z,84.51
2023-02-19T20:02:47.127Z,84.18
2023-02-19T20:05:16.985Z,83.60
2023-02-19T20:07:45.944Z,83.16
2023-02-19T20:10:17.029Z,82.93
2023-02-19T20:12:45.963Z,82.88
2023-02-19T20:15:19.669Z,82.27
2023-02-19T20:17:48.460Z,81.73
2023-02-19T20:20:19.682Z,81.50
2023-02-19T20:22:48.005Z,81.05
2023-02-19T20:25:16.503Z,80.75
2023-02-19T20:27:44.967Z,80.30
2023-02-19T20:30:15.358Z,79.99
2023-02-19T20:32:44.038Z,79.40
2023-02-19T20:35:12.880Z,79.22
2023-02-19T20:37:41.674Z,78.64
2023-02-19T20:40:12.251Z,77.75
2023-02-19T20:42:41.000Z,77.80
2023-02-19T20:45:09.499Z,76.91
2023-02-19T20:47:40.257Z,76.96
2023-02-19T20:50:09.020Z,76.40
2023-02-19T20:52:37.407Z,76.60
2023-02-19T20:55:06.440Z,76.90
2023-02-19T20:57:35.102Z,76.30
2023-02-19T21:00:05.012Z,75.63
2023-02-19T21:02:33.418Z,75.68
2023-02-19T21:05:02.214Z,75.18
2023-02-19T21:07:31.101Z,75.22
2023-02-19T21:09:59.581Z,75.59
2023-02-19T21:12:27.959Z,75.64
2023-02-19T21:14:56.245Z,75.69
2023-02-19T21:17:24.726Z,75.66
2023-02-19T21:19:53.117Z,75.50
2023-02-19T21:22:21.495Z,75.98
2023-02-19T21:24:52.232Z,76.60
2023-02-19T21:27:20.939Z,76.29
2023-02-19T21:29:49.314Z,76.23
2023-02-19T21:32:17.941Z,76.68
2023-02-19T21:34:46.386Z,76.55
2023-02-19T21:37:14.874Z,76.69
2023-02-19T21:39:43.254Z,76.05
2023-02-19T21:42:11.550Z,75.92
2023-02-19T21:44:42.990Z,76.03
2023-02-19T21:47:12.954Z,75.93
2023-02-19T21:49:43.239Z,75.46
2023-02-19T21:52:11.830Z,75.51
2023-02-19T21:54:40.320Z,75.57
2023-02-19T21:57:09.675Z,75.81
2023-02-19T21:59:37.924Z,75.34
2023-02-19T22:02:06.705Z,75.27
2023-02-19T22:04:35.095Z,75.35
2023-02-19T22:07:03.981Z,74.95
2023-02-19T22:09:32.262Z,74.84
2023-02-19T22:12:00.647Z,74.45
2023-02-19T22:14:29.125Z,74.48
2023-02-19T22:16:57.534Z,74.57
2023-02-19T22:19:25.995Z,74.88
2023-02-19T22:21:54.487Z,74.83
2023-02-19T22:24:23.079Z,74.92
2023-02-19T22:26:56.377Z,74.92
2023-02-19T22:29:25.176Z,75.12
2023-02-19T22:31:53.601Z,75.14
2023-02-19T22:34:22.340Z,75.10
2023-02-19T22:36:51.049Z,74.80
2023-02-19T22:39:25.663Z,74.78
2023-02-19T22:41:54.310Z,74.42
2023-02-19T22:44:22.747Z,74.69
2023-02-19T22:46:54.921Z,74.48
2023-02-19T22:49:24.485Z,74.49
2023-02-19T22:52:05.916Z,74.65
2023-02-19T22:54:37.886Z,74.84
2023-02-19T22:57:06.452Z,74.51
2023-02-19T22:59:34.851Z,74.25
2023-02-19T23:02:03.229Z,73.91
2023-02-19T23:04:31.475Z,74.22
2023-02-19T23:06:59.898Z,74.13
2023-02-19T23:09:29.508Z,73.90
2023-02-19T23:12:02.886Z,74.10
2023-02-19T23:14:31.294Z,74.17
2023-02-19T23:17:00.168Z,73.90
2023-02-19T23:19:28.575Z,73.96
2023-02-19T23:21:57.191Z,73.81
2023-02-19T23:24:26.066Z,73.59
2023-02-19T23:26:54.773Z,73.15
2023-02-19T23:29:26.820Z,73.39
2023-02-19T23:31:55.374Z,73.46
2023-02-19T23:34:24.713Z,73.71
2023-02-19T23:36:54.734Z,74.05
2023-02-19T23:39:23.221Z,74.23
2023-02-19T23:41:54.505Z,74.23
2023-02-19T23:44:25.519Z,74.37
2023-02-19T23:46:54.709Z,74.65
2023-02-19T23:49:23.301Z,74.58
2023-02-19T23:51:52.000Z,74.38
2023-02-19T23:54:20.688Z,74.40
2023-02-19T23:56:49.399Z,74.57
2023-02-19T23:59:17.759Z,74.39
